Time;durP1;ratioP1;P1;durP2;ratioP2;P2;SDS_P1;SDS_P2;PMS_P1;PMS_P2;Temp;Humidity;BMP_temperature;BMP_pressure;BME280_temperature;BME280_humidity;BME280_pressure;Samples;Min_cycle;Max_cycle;Signal;HPM_P1;HPM_P2
2021/01/11 00:00:33;;;;;;;28.25;13.55;;;3.20;99.90;;;;;;3624734;39;20264;-74
2021/01/11 00:03:00;;;;;;;30.15;13.10;;;3.10;99.90;;;;;;3620317;39;20244;-74
2021/01/11 00:05:27;;;;;;;25.23;13.50;;;3.00;99.90;;;;;;3632818;31;20384;-74
2021/01/11 00:07:54;;;;;;;25.23;12.88;;;2.90;99.90;;;;;;3620149;39;20273;-73
2021/01/11 00:10:20;;;;;;;24.67;13.93;;;2.80;99.90;;;;;;3632516;32;20249;-74
2021/01/11 00:12:47;;;;;;;26.50;14.38;;;2.80;99.90;;;;;;3621825;39;20256;-73
2021/01/11 00:15:15;;;;;;;25.05;13.25;;;2.80;99.90;;;;;;3624415;39;20283;-73
2021/01/11 00:17:43;;;;;;;24.35;12.85;;;3.00;99.90;;;;;;3621802;39;20261;-74
2021/01/11 00:20:11;;;;;;;25.88;12.75;;;3.00;99.90;;;;;;3627009;39;20272;-74
2021/01/11 00:22:42;;;;;;;25.30;13.75;;;3.10;99.90;;;;;;3619582;39;20288;-73
2021/01/11 00:25:10;;;;;;;28.67;12.82;;;3.00;99.90;;;;;;3626550;39;20344;-74
2021/01/11 00:27:37;;;;;;;26.33;14.13;;;3.10;99.90;;;;;;3623802;39;20360;-75
2021/01/11 00:30:06;;;;;;;22.85;13.25;;;3.00;99.90;;;;;;3625242;39;20705;-74
2021/01/11 00:32:34;;;;;;;28.80;14.23;;;2.90;99.90;;;;;;3624417;39;20240;-74
2021/01/11 00:35:01;;;;;;;22.65;13.88;;;2.90;99.90;;;;;;3625364;39;20288;-74
2021/01/11 00:37:28;;;;;;;25.95;14.43;;;2.90;99.90;;;;;;3620685;39;20282;-74
2021/01/11 00:39:55;;;;;;;30.15;15.25;;;2.90;99.90;;;;;;3621473;39;20259;-74
2021/01/11 00:42:22;;;;;;;28.48;13.55;;;2.90;99.90;;;;;;3622915;39;20385;-74
2021/01/11 00:44:49;;;;;;;25.50;14.70;;;2.90;99.90;;;;;;3623989;39;20244;-74
2021/01/11 00:47:15;;;;;;;30.13;14.50;;;2.90;99.90;;;;;;3622482;39;20278;-74
2021/01/11 00:49:42;;;;;;;27.92;15.55;;;2.90;99.90;;;;;;3622723;39;20253;-73
2021/01/11 00:52:09;;;;;;;26.83;14.43;;;3.00;99.90;;;;;;3622411;39;20262;-74
2021/01/11 00:54:36;;;;;;;26.08;14.63;;;3.00;99.90;;;;;;3622170;39;20254;-73
2021/01/11 00:57:03;;;;;;;27.80;15.30;;;3.10;99.90;;;;;;3628376;39;20273;-73
2021/01/11 00:59:30;;;;;;;30.48;14.57;;;3.10;99.90;;;;;;3623102;39;20319;-74
2021/01/11 01:01:57;;;;;;;25.42;14.52;;;3.10;99.90;;;;;;3621510;39;20259;-75
2021/01/11 01:04:24;;;;;;;41.78;15.80;;;3.00;99.90;;;;;;3621636;39;20253;-74
2021/01/11 01:06:50;;;;;;;28.73;14.73;;;3.00;99.90;;;;;;3623970;39;20248;-74
2021/01/11 01:09:17;;;;;;;28.23;14.75;;;3.00;99.90;;;;;;3621215;39;20286;-74
2021/01/11 01:11:44;;;;;;;27.23;15.30;;;2.90;99.90;;;;;;3620784;39;20253;-74
2021/01/11 01:14:11;;;;;;;26.58;15.35;;;2.90;99.90;;;;;;3648103;31;20248;-75
2021/01/11 01:16:38;;;;;;;31.33;14.82;;;3.00;99.90;;;;;;3622648;39;20761;-73
2021/01/11 01:19:05;;;;;;;28.95;15.98;;;2.90;99.90;;;;;;3621239;39;20243;-74
2021/01/11 01:21:31;;;;;;;31.92;16.85;;;2.90;99.90;;;;;;3623986;39;20302;-73
2021/01/11 01:23:58;;;;;;;27.92;14.75;;;2.90;99.90;;;;;;3623624;39;20255;-73
2021/01/11 01:26:24;;;;;;;30.23;16.52;;;2.90;99.90;;;;;;3621310;39;20254;-73
2021/01/11 01:28:50;;;;;;;27.83;14.05;;;2.90;99.90;;;;;;3621440;39;20595;-73
2021/01/11 01:31:18;;;;;;;29.63;16.65;;;2.80;99.90;;;;;;3624065;39;20341;-73
2021/01/11 01:33:44;;;;;;;25.67;14.90;;;2.80;99.90;;;;;;3625770;39;20250;-74
2021/01/11 01:36:11;;;;;;;27.17;15.82;;;2.80;99.90;;;;;;3621119;39;20289;-74
2021/01/11 01:38:37;;;;;;;32.08;16.55;;;2.80;99.90;;;;;;3620094;39;20265;-73
2021/01/11 01:41:04;;;;;;;29.67;16.52;;;2.80;99.90;;;;;;3621125;39;20297;-74
2021/01/11 01:43:30;;;;;;;28.48;16.55;;;2.80;99.90;;;;;;3620855;39;20258;-74
2021/01/11 01:45:57;;;;;;;27.63;14.88;;;2.80;99.90;;;;;;3620698;39;20310;-74
2021/01/11 01:48:25;;;;;;;27.25;15.50;;;2.80;99.90;;;;;;3619839;39;20246;-74
2021/01/11 01:50:51;;;;;;;34.50;18.55;;;2.80;99.90;;;;;;3621773;39;20290;-74
2021/01/11 01:53:18;;;;;;;33.63;16.35;;;2.80;99.90;;;;;;3623647;39;20581;-74
2021/01/11 01:55:45;;;;;;;32.67;17.23;;;2.70;99.90;;;;;;3620467;39;20278;-74
2021/01/11 01:58:12;;;;;;;35.50;17.27;;;2.80;99.90;;;;;;3620757;39;20277;-74
2021/01/11 02:00:38;;;;;;;31.73;17.73;;;2.80;99.90;;;;;;3621211;39;20264;-74
2021/01/11 02:03:05;;;;;;;32.97;16.38;;;2.80;99.90;;;;;;3623648;39;20250;-74
2021/01/11 02:05:33;;;;;;;34.97;17.40;;;2.80;99.90;;;;;;3620738;39;20294;-74
2021/01/11 02:08:08;;;;;;;37.35;18.67;;;2.80;99.90;;;;;;3624936;39;20254;-74
2021/01/11 02:10:49;;;;;;;35.55;18.23;;;2.80;99.90;;;;;;3622652;39;20244;-74
2021/01/11 02:13:28;;;;;;;32.50;18.83;;;2.80;99.90;;;;;;3623949;39;20400;-74
2021/01/11 02:16:03;;;;;;;40.60;19.65;;;2.80;99.90;;;;;;3620107;39;20280;-74
2021/01/11 02:18:40;;;;;;;35.70;19.08;;;2.70;99.90;;;;;;3623669;39;20311;-74
2021/01/11 02:21:27;;;;;;;35.70;19.13;;;2.70;99.90;;;;;;3620738;39;20269;-73
2021/01/11 02:24:34;;;;;;;37.55;19.05;;;2.60;99.90;;;;;;3619819;39;20650;-73
2021/01/11 02:27:19;;;;;;;35.00;18.27;;;2.50;99.90;;;;;;3610484;39;20371;-73
2021/01/11 02:30:06;;;;;;;37.58;19.45;;;2.50;99.90;;;;;;3609699;39;20245;-73
2021/01/11 02:32:33;;;;;;;35.05;18.95;;;2.50;99.90;;;;;;3609039;39;20297;-73
2021/01/11 02:35:03;;;;;;;38.85;20.05;;;2.50;99.90;;;;;;3607826;39;20376;-73
2021/01/11 02:37:31;;;;;;;38.20;20.02;;;2.50;99.90;;;;;;3607890;39;20244;-74
2021/01/11 02:39:58;;;;;;;40.88;20.05;;;2.60;99.90;;;;;;3607685;39;20311;-74
2021/01/11 02:42:24;;;;;;;36.40;19.85;;;2.60;99.90;;;;;;3610280;39;20280;-74
2021/01/11 02:44:51;;;;;;;34.78;18.60;;;2.50;99.90;;;;;;3610948;39;20258;-74
2021/01/11 02:47:25;;;;;;;41.05;20.98;;;2.40;99.90;;;;;;3607815;39;20286;-73
2021/01/11 02:49:55;;;;;;;38.17;20.02;;;2.40;99.90;;;;;;3607641;39;20262;-73
2021/01/11 02:52:33;;;;;;;41.90;20.30;;;2.40;99.90;;;;;;3607994;39;20285;-74
2021/01/11 02:55:07;;;;;;;42.95;20.65;;;2.40;99.90;;;;;;3599789;39;20252;-74
2021/01/11 02:57:43;;;;;;;38.33;20.15;;;2.40;99.90;;;;;;3607274;39;20267;-74
2021/01/11 03:00:11;;;;;;;37.72;20.08;;;2.50;99.90;;;;;;3611989;39;20539;-74
2021/01/11 03:02:46;;;;;;;38.80;20.42;;;2.50;99.90;;;;;;3619825;39;20324;-74
2021/01/11 03:05:13;;;;;;;36.88;20.67;;;2.50;99.90;;;;;;3620405;39;20282;-74
2021/01/11 03:07:40;;;;;;;37.47;20.08;;;2.50;99.90;;;;;;3621960;39;20284;-74
2021/01/11 03:10:07;;;;;;;36.00;20.58;;;2.60;99.90;;;;;;3624996;39;20365;-74
2021/01/11 03:12:34;;;;;;;40.72;20.77;;;2.60;99.90;;;;;;3620505;39;20367;-74
2021/01/11 03:15:00;;;;;;;44.45;21.38;;;2.60;99.90;;;;;;3627085;39;20311;-73
2021/01/11 03:17:27;;;;;;;39.78;19.92;;;2.50;99.90;;;;;;3620243;39;20377;-74
2021/01/11 03:19:54;;;;;;;45.70;21.92;;;2.40;99.90;;;;;;3620067;39;20247;-74
2021/01/11 03:22:21;;;;;;;42.58;21.45;;;2.40;99.90;;;;;;3622829;39;20600;-74
2021/01/11 03:24:48;;;;;;;43.60;21.98;;;2.40;99.90;;;;;;3620326;39;20286;-73
2021/01/11 03:27:15;;;;;;;45.83;23.35;;;2.30;99.90;;;;;;3620357;39;20348;-73
2021/01/11 03:29:41;;;;;;;46.55;23.95;;;2.20;99.90;;;;;;3620077;39;20264;-73
2021/01/11 03:32:08;;;;;;;45.92;23.42;;;2.20;99.90;;;;;;3623331;39;20357;-73
2021/01/11 03:34:34;;;;;;;45.42;22.23;;;2.20;99.90;;;;;;3628430;32;20249;-73
2021/01/11 03:37:01;;;;;;;50.30;24.25;;;2.20;99.90;;;;;;3620762;39;20262;-74
2021/01/11 03:39:28;;;;;;;50.03;23.38;;;2.20;99.90;;;;;;3620084;39;20257;-74
2021/01/11 03:41:54;;;;;;;43.55;23.95;;;2.30;99.90;;;;;;3620547;39;20276;-73
2021/01/11 03:44:21;;;;;;;45.38;23.52;;;2.30;99.90;;;;;;3620117;39;20259;-74
2021/01/11 03:46:47;;;;;;;51.15;25.33;;;2.40;99.90;;;;;;3621433;39;20258;-73
2021/01/11 03:49:14;;;;;;;50.83;24.65;;;2.40;99.90;;;;;;3622062;39;20281;-73
2021/01/11 03:51:40;;;;;;;52.45;25.50;;;2.40;99.90;;;;;;3624036;39;20342;-73
2021/01/11 03:54:08;;;;;;;49.72;25.35;;;2.30;99.90;;;;;;3625198;39;20330;-73
2021/01/11 03:56:34;;;;;;;50.88;26.75;;;2.30;99.90;;;;;;3631921;32;20257;-73
2021/01/11 03:59:01;;;;;;;54.60;25.60;;;2.20;99.90;;;;;;3622000;39;20786;-74
2021/01/11 04:01:27;;;;;;;49.78;25.52;;;2.30;99.90;;;;;;3621324;39;20288;-74
2021/01/11 04:03:54;;;;;;;51.42;26.42;;;2.30;99.90;;;;;;3627365;39;20291;-73
2021/01/11 04:06:21;;;;;;;49.58;25.05;;;2.30;99.90;;;;;;3622852;39;20869;-73
2021/01/11 04:08:48;;;;;;;48.60;26.75;;;2.30;99.90;;;;;;3622088;39;20257;-73
2021/01/11 04:11:18;;;;;;;50.70;28.15;;;2.40;99.90;;;;;;3627555;31;20252;-73
2021/01/11 04:13:45;;;;;;;59.08;29.35;;;2.30;99.90;;;;;;3622500;39;20253;-73
2021/01/11 04:16:11;;;;;;;55.88;30.05;;;2.30;99.90;;;;;;3621533;39;20243;-74
2021/01/11 04:18:38;;;;;;;49.55;24.55;;;2.30;99.90;;;;;;3627022;39;20249;-74
2021/01/11 04:21:05;;;;;;;54.85;27.15;;;2.20;99.90;;;;;;3623822;39;20278;-74
2021/01/11 04:23:32;;;;;;;49.03;24.77;;;2.30;99.90;;;;;;3629216;39;20363;-73
2021/01/11 04:25:58;;;;;;;48.42;25.05;;;2.20;99.90;;;;;;3625265;39;20250;-74
2021/01/11 04:28:26;;;;;;;50.55;26.80;;;2.20;99.90;;;;;;3621718;39;20246;-74
2021/01/11 04:30:52;;;;;;;47.47;25.50;;;2.10;99.90;;;;;;3620374;39;20312;-74
2021/01/11 04:33:19;;;;;;;45.95;24.40;;;2.00;99.90;;;;;;3628708;39;20261;-73
2021/01/11 04:35:45;;;;;;;47.53;24.50;;;2.10;99.90;;;;;;3621449;39;20365;-73
2021/01/11 04:38:12;;;;;;;53.85;27.23;;;2.00;99.90;;;;;;3622348;39;20278;-73
2021/01/11 04:40:38;;;;;;;51.53;26.40;;;2.10;99.90;;;;;;3621449;39;20258;-73
2021/01/11 04:43:12;;;;;;;51.75;26.70;;;2.10;99.90;;;;;;3621497;39;20251;-73
2021/01/11 04:45:39;;;;;;;52.83;25.55;;;2.20;99.90;;;;;;3655432;31;20330;-73
2021/01/11 04:48:07;;;;;;;52.20;26.10;;;2.20;99.90;;;;;;3620261;39;20260;-74
2021/01/11 04:50:33;;;;;;;53.38;25.17;;;2.20;99.90;;;;;;3624047;39;20269;-74
2021/01/11 04:53:06;;;;;;;51.88;25.02;;;2.20;99.90;;;;;;3621423;39;20970;-74
2021/01/11 04:55:35;;;;;;;45.47;23.13;;;2.20;99.90;;;;;;3623446;39;20236;-73
2021/01/11 04:58:07;;;;;;;47.92;25.58;;;2.30;99.90;;;;;;3623105;39;20349;-73
2021/01/11 05:00:34;;;;;;;45.25;24.05;;;2.20;99.90;;;;;;3622439;39;20280;-73
2021/01/11 05:03:03;;;;;;;48.78;23.60;;;2.20;99.90;;;;;;3624461;39;20244;-73
2021/01/11 05:05:31;;;;;;;45.00;24.35;;;2.20;99.90;;;;;;3625933;39;20284;-74
2021/01/11 05:07:58;;;;;;;50.17;24.05;;;2.30;99.90;;;;;;3623930;39;20291;-73
2021/01/11 05:10:26;;;;;;;42.15;24.88;;;2.20;99.90;;;;;;3621872;39;20357;-74
2021/01/11 05:12:54;;;;;;;45.45;22.92;;;2.20;99.90;;;;;;3621363;39;20264;-74
2021/01/11 05:15:23;;;;;;;46.80;24.05;;;2.20;99.90;;;;;;3620364;39;20273;-73
2021/01/11 05:17:50;;;;;;;44.40;22.10;;;2.20;99.90;;;;;;3621236;39;20274;-73
2021/01/11 05:20:21;;;;;;;41.30;21.80;;;2.30;99.90;;;;;;3621159;39;20289;-74
2021/01/11 05:22:48;;;;;;;44.80;23.65;;;2.30;99.90;;;;;;3620686;39;20368;-74
2021/01/11 05:25:16;;;;;;;45.00;22.48;;;2.20;99.90;;;;;;3622218;39;20271;-74
2021/01/11 05:27:44;;;;;;;47.65;21.98;;;2.20;99.90;;;;;;3623725;39;20344;-73
2021/01/11 05:30:27;;;;;;;42.30;22.00;;;2.10;99.90;;;;;;3621396;39;20272;-73
2021/01/11 05:32:55;;;;;;;41.90;21.55;;;2.10;99.90;;;;;;3621699;39;20287;-73
2021/01/11 05:35:23;;;;;;;42.78;21.75;;;2.00;99.90;;;;;;3621614;39;20352;-73
2021/01/11 05:37:51;;;;;;;46.42;22.58;;;2.00;99.90;;;;;;3620789;39;20367;-74
2021/01/11 05:40:19;;;;;;;40.33;22.38;;;2.00;99.90;;;;;;3623709;31;20270;-74
2021/01/11 05:42:51;;;;;;;64.72;23.35;;;2.00;99.90;;;;;;3620769;39;20274;-74
2021/01/11 05:45:19;;;;;;;43.00;23.00;;;2.10;99.90;;;;;;3621188;39;20272;-73
2021/01/11 05:48:04;;;;;;;43.83;23.70;;;2.10;99.90;;;;;;3620749;39;20348;-74
2021/01/11 05:50:36;;;;;;;42.50;23.10;;;2.20;99.90;;;;;;3620877;39;20248;-73
2021/01/11 05:53:03;;;;;;;51.20;23.55;;;2.20;99.90;;;;;;3624683;39;20634;-74
2021/01/11 05:55:31;;;;;;;43.13;23.10;;;2.20;99.90;;;;;;3620591;39;20249;-73
2021/01/11 05:58:00;;;;;;;49.55;22.80;;;2.20;99.90;;;;;;3622903;39;20268;-73
2021/01/11 06:00:29;;;;;;;55.28;22.35;;;2.30;99.90;;;;;;3655679;31;20245;-74
2021/01/11 06:02:56;;;;;;;54.15;22.42;;;2.20;99.90;;;;;;3620577;39;20352;-73
2021/01/11 06:05:23;;;;;;;50.42;24.55;;;2.30;99.90;;;;;;3620644;39;20250;-74
2021/01/11 06:07:50;;;;;;;55.00;26.65;;;2.20;99.90;;;;;;3624051;39;20240;-73
2021/01/11 06:10:18;;;;;;;47.92;25.00;;;2.30;99.90;;;;;;3620807;39;20269;-73
2021/01/11 06:12:46;;;;;;;54.50;26.00;;;2.30;99.90;;;;;;3620865;39;20844;-74
2021/01/11 06:15:14;;;;;;;48.78;24.27;;;2.20;99.90;;;;;;3624151;39;20235;-73
2021/01/11 06:17:42;;;;;;;54.97;25.63;;;2.20;99.90;;;;;;3625491;39;20287;-73
2021/01/11 06:20:13;;;;;;;61.85;26.63;;;2.20;99.90;;;;;;3622960;39;20287;-73
2021/01/11 06:23:04;;;;;;;48.78;26.17;;;2.10;99.90;;;;;;3620299;39;20253;-73
2021/01/11 06:25:35;;;;;;;57.40;25.02;;;2.10;99.90;;;;;;3620394;39;20262;-73
2021/01/11 06:28:02;;;;;;;50.55;25.15;;;2.10;99.90;;;;;;3622935;39;20254;-74
2021/01/11 06:30:45;;;;;;;51.33;25.55;;;2.10;99.90;;;;;;3620940;39;20262;-74
2021/01/11 06:33:16;;;;;;;55.97;26.17;;;2.20;99.90;;;;;;3620016;39;20273;-73
2021/01/11 06:35:45;;;;;;;52.50;24.20;;;2.20;99.90;;;;;;3621270;39;20248;-73
2021/01/11 06:38:19;;;;;;;48.75;25.40;;;2.10;99.90;;;;;;3620550;39;20256;-73
2021/01/11 06:40:48;;;;;;;52.90;24.52;;;2.10;99.90;;;;;;3620391;39;20289;-73
2021/01/11 06:43:16;;;;;;;50.97;24.50;;;2.20;99.90;;;;;;3623492;39;20261;-73
2021/01/11 06:45:45;;;;;;;50.92;24.50;;;2.10;99.90;;;;;;3620132;39;20597;-73
2021/01/11 06:48:15;;;;;;;40.38;22.42;;;2.20;99.90;;;;;;3620933;39;20264;-73
2021/01/11 06:50:44;;;;;;;45.60;22.83;;;2.20;99.90;;;;;;3620512;39;20298;-73
2021/01/11 06:53:11;;;;;;;48.75;23.65;;;2.20;99.90;;;;;;3625884;39;20293;-73
2021/01/11 06:55:39;;;;;;;46.53;23.85;;;2.20;99.90;;;;;;3620393;39;20252;-73
2021/01/11 06:58:05;;;;;;;45.50;24.02;;;2.20;99.90;;;;;;3619066;39;20261;-73
2021/01/11 07:00:34;;;;;;;40.42;20.52;;;2.20;99.90;;;;;;3619484;39;20344;-74
2021/01/11 07:03:02;;;;;;;38.72;21.08;;;2.20;99.90;;;;;;3620450;39;20265;-73
2021/01/11 07:05:50;;;;;;;43.25;22.30;;;2.30;99.90;;;;;;3620532;39;20257;-73
2021/01/11 07:08:21;;;;;;;43.58;22.27;;;2.30;99.90;;;;;;3618836;39;20261;-74
2021/01/11 07:11:04;;;;;;;44.50;22.55;;;2.30;99.90;;;;;;3621873;39;20278;-74
2021/01/11 07:13:32;;;;;;;40.72;19.70;;;2.30;99.90;;;;;;3620170;39;20277;-74
2021/01/11 07:16:16;;;;;;;36.33;20.60;;;2.30;99.90;;;;;;3622338;39;20259;-74
2021/01/11 07:18:51;;;;;;;40.92;22.73;;;2.30;99.90;;;;;;3622969;39;20326;-74
2021/01/11 07:21:19;;;;;;;47.97;22.00;;;2.30;99.90;;;;;;3622469;39;20300;-74
2021/01/11 07:23:45;;;;;;;41.95;21.25;;;2.30;99.90;;;;;;3622738;39;20362;-74
2021/01/11 07:26:15;;;;;;;44.25;20.80;;;2.30;99.90;;;;;;3625590;39;20266;-74
2021/01/11 07:28:52;;;;;;;37.45;19.75;;;2.40;99.90;;;;;;3622131;39;20628;-74
2021/01/11 07:31:20;;;;;;;40.30;20.88;;;2.40;99.90;;;;;;3621827;39;20263;-74
2021/01/11 07:33:50;;;;;;;40.65;21.02;;;2.40;99.90;;;;;;3631858;31;20122;-74
2021/01/11 07:36:19;;;;;;;38.33;20.50;;;2.40;99.90;;;;;;3622773;39;20266;-73
2021/01/11 07:38:45;;;;;;;42.30;19.60;;;2.30;99.90;;;;;;3625006;39;20253;-74
2021/01/11 07:41:25;;;;;;;41.15;20.08;;;2.40;99.90;;;;;;3621879;39;20241;-74
2021/01/11 07:43:52;;;;;;;34.75;17.42;;;2.40;99.90;;;;;;3621594;39;20680;-75
2021/01/11 07:46:24;;;;;;;38.17;19.17;;;2.40;99.90;;;;;;3625479;39;20259;-75
2021/01/11 07:48:50;;;;;;;38.83;19.45;;;2.40;99.90;;;;;;3621934;39;20346;-75
2021/01/11 07:51:24;;;;;;;41.53;20.80;;;2.30;99.90;;;;;;3624963;39;20266;-75
2021/01/11 07:53:52;;;;;;;32.13;17.63;;;2.20;99.90;;;;;;3622388;39;20281;-74
2021/01/11 07:56:21;;;;;;;43.78;21.27;;;2.20;99.90;;;;;;3623402;39;20261;-75
2021/01/11 07:58:52;;;;;;;36.75;19.15;;;2.20;99.90;;;;;;3622201;39;20301;-75
2021/01/11 08:01:22;;;;;;;36.53;20.50;;;2.20;99.90;;;;;;3622287;39;20356;-74
2021/01/11 08:03:49;;;;;;;31.33;17.02;;;2.20;99.90;;;;;;3647074;32;20262;-75
2021/01/11 08:06:16;;;;;;;34.67;17.05;;;2.20;99.90;;;;;;3621434;39;20300;-75
2021/01/11 08:08:44;;;;;;;32.15;17.63;;;2.20;99.90;;;;;;3625672;39;20267;-75
2021/01/11 08:11:11;;;;;;;35.05;18.30;;;2.20;99.90;;;;;;3622071;39;20617;-74
2021/01/11 08:13:37;;;;;;;29.75;17.42;;;2.30;99.90;;;;;;3621983;39;20265;-74
2021/01/11 08:16:16;;;;;;;36.40;16.63;;;2.30;99.90;;;;;;3622042;39;20278;-74
2021/01/11 08:18:43;;;;;;;42.80;18.35;;;2.30;99.90;;;;;;3624690;39;20302;-74
2021/01/11 08:21:12;;;;;;;30.73;17.05;;;2.30;99.90;;;;;;3621640;39;20275;-74
2021/01/11 08:23:40;;;;;;;37.58;17.10;;;2.40;99.90;;;;;;3650537;31;20243;-74
2021/01/11 08:26:10;;;;;;;33.35;17.23;;;2.40;99.90;;;;;;3624955;39;20284;-74
2021/01/11 08:28:38;;;;;;;38.35;16.40;;;2.40;99.90;;;;;;3622632;39;20258;-75
2021/01/11 08:31:05;;;;;;;33.63;18.20;;;2.40;99.90;;;;;;3624027;39;20271;-74
2021/01/11 08:33:36;;;;;;;35.33;18.33;;;2.40;99.90;;;;;;3626066;39;20283;-74
2021/01/11 08:36:17;;;;;;;31.95;17.73;;;2.40;99.90;;;;;;3626201;39;20278;-74
2021/01/11 08:39:31;;;;;;;34.08;18.13;;;2.40;99.90;;;;;;3621900;39;20255;-74
2021/01/11 08:42:26;;;;;;;33.88;18.45;;;2.30;99.90;;;;;;3612567;39;20253;-74
2021/01/11 08:45:33;;;;;;;31.23;17.30;;;2.30;99.90;;;;;;3611302;39;20631;-74
2021/01/11 08:48:02;;;;;;;35.80;17.52;;;2.30;99.90;;;;;;3608436;39;20247;-75
2021/01/11 08:50:35;;;;;;;43.70;19.20;;;2.40;99.90;;;;;;3612748;39;20290;-73
2021/01/11 08:53:38;;;;;;;34.85;18.17;;;2.40;99.90;;;;;;3612151;39;20272;-75
2021/01/11 08:56:53;;;;;;;37.90;17.13;;;2.30;99.90;;;;;;3611202;32;20299;-75
2021/01/11 08:59:20;;;;;;;37.35;19.75;;;2.30;99.90;;;;;;3584696;32;20326;-73
2021/01/11 09:01:46;;;;;;;36.10;17.90;;;2.30;99.90;;;;;;3584276;32;20270;-73
2021/01/11 09:04:29;;;;;;;35.10;18.65;;;2.30;99.90;;;;;;3578690;40;20258;-73
2021/01/11 09:07:01;;;;;;;35.65;16.38;;;2.30;99.90;;;;;;3577903;40;20890;-75
2021/01/11 09:09:36;;;;;;;37.40;18.63;;;2.40;99.90;;;;;;3583668;32;20260;-76
2021/01/11 09:12:08;;;;;;;37.33;19.55;;;2.30;99.90;;;;;;3578962;40;20668;-77
2021/01/11 09:14:51;;;;;;;32.65;18.42;;;2.30;99.90;;;;;;3581378;32;20305;-78
2021/01/11 09:17:26;;;;;;;38.10;17.95;;;2.30;99.90;;;;;;3580614;40;20343;-75
2021/01/11 09:19:53;;;;;;;30.90;17.60;;;2.40;99.90;;;;;;3581703;40;20251;-73
2021/01/11 09:22:31;;;;;;;32.45;16.98;;;2.40;99.90;;;;;;3580088;40;20440;-76
2021/01/11 09:24:58;;;;;;;32.72;15.98;;;2.40;99.90;;;;;;3578340;40;20303;-72
2021/01/11 09:27:25;;;;;;;39.20;15.63;;;2.40;99.90;;;;;;3581806;40;20270;-73
2021/01/11 09:29:52;;;;;;;25.73;15.32;;;2.40;99.90;;;;;;3578062;40;20262;-75
2021/01/11 09:32:18;;;;;;;30.65;16.08;;;2.40;99.90;;;;;;3578057;40;20332;-74
2021/01/11 09:34:45;;;;;;;29.48;13.30;;;2.40;99.90;;;;;;3581684;39;20341;-74
2021/01/11 09:37:12;;;;;;;31.15;16.55;;;2.40;99.90;;;;;;3610436;39;20371;-76
2021/01/11 09:39:40;;;;;;;28.75;14.77;;;2.50;99.90;;;;;;3610532;39;20665;-73
2021/01/11 09:42:08;;;;;;;31.30;15.90;;;2.60;99.90;;;;;;3611138;39;20319;-72
2021/01/11 09:44:36;;;;;;;39.40;16.35;;;2.50;99.90;;;;;;3619000;39;20242;-75
2021/01/11 09:47:06;;;;;;;32.78;16.05;;;2.50;99.90;;;;;;3612011;39;20276;-75
2021/01/11 09:49:34;;;;;;;29.23;14.85;;;2.50;99.90;;;;;;3613579;32;20292;-73
2021/01/11 09:52:03;;;;;;;32.47;14.82;;;2.50;99.90;;;;;;3611143;39;20253;-73
2021/01/11 09:54:31;;;;;;;33.65;15.07;;;2.50;99.90;;;;;;3610970;39;20290;-73
2021/01/11 09:56:59;;;;;;;29.90;16.13;;;2.60;99.90;;;;;;3612059;39;20272;-73
2021/01/11 09:59:27;;;;;;;35.30;14.80;;;2.60;99.90;;;;;;3610616;39;20290;-73
2021/01/11 10:01:55;;;;;;;27.65;16.27;;;2.70;99.90;;;;;;3612574;39;20282;-74
2021/01/11 10:04:22;;;;;;;31.08;17.13;;;2.70;99.90;;;;;;3614831;32;20272;-72
2021/01/11 10:06:50;;;;;;;27.17;14.50;;;2.70;99.90;;;;;;3611124;39;20283;-74
2021/01/11 10:09:19;;;;;;;31.63;14.73;;;2.80;99.90;;;;;;3612163;39;20249;-73
2021/01/11 10:11:47;;;;;;;27.98;14.23;;;2.80;99.90;;;;;;3610639;39;20281;-73
2021/01/11 10:14:14;;;;;;;33.58;15.43;;;2.80;99.90;;;;;;3610691;39;20250;-73
2021/01/11 10:16:43;;;;;;;28.85;14.50;;;2.90;99.90;;;;;;3613449;39;20261;-73
2021/01/11 10:19:11;;;;;;;27.38;14.52;;;2.90;99.90;;;;;;3611816;39;20276;-73
2021/01/11 10:21:38;;;;;;;30.13;14.80;;;2.90;99.90;;;;;;3610577;39;20270;-73
2021/01/11 10:24:06;;;;;;;25.60;14.85;;;2.90;99.90;;;;;;3614661;39;20272;-73
2021/01/11 10:26:33;;;;;;;24.95;13.55;;;3.00;99.90;;;;;;3611870;39;20350;-73
2021/01/11 10:29:00;;;;;;;32.13;14.98;;;3.00;99.90;;;;;;3613516;39;20272;-72
2021/01/11 10:31:28;;;;;;;25.23;12.95;;;3.00;99.90;;;;;;3610909;39;20383;-73
2021/01/11 10:33:54;;;;;;;22.55;12.75;;;3.00;99.90;;;;;;3613988;32;20264;-74
2021/01/11 10:36:22;;;;;;;21.63;12.13;;;3.00;99.90;;;;;;3617900;31;20357;-74
2021/01/11 10:38:50;;;;;;;27.60;14.07;;;3.10;99.90;;;;;;3614741;39;20281;-74
2021/01/11 10:41:18;;;;;;;22.38;13.48;;;3.10;99.90;;;;;;3610279;39;20255;-74
2021/01/11 10:43:45;;;;;;;21.63;12.02;;;3.00;99.90;;;;;;3610357;39;20351;-75
2021/01/11 10:46:12;;;;;;;30.30;15.13;;;3.00;99.90;;;;;;3610376;39;20249;-75
2021/01/11 10:48:40;;;;;;;28.42;15.38;;;3.00;99.90;;;;;;3612054;39;20265;-75
2021/01/11 10:51:10;;;;;;;24.80;14.05;;;3.10;99.90;;;;;;3611315;39;20293;-75
2021/01/11 10:53:38;;;;;;;26.75;13.30;;;3.10;99.90;;;;;;3616035;32;20290;-75
2021/01/11 10:56:05;;;;;;;25.80;12.65;;;3.00;99.90;;;;;;3613796;39;20258;-76
2021/01/11 10:58:33;;;;;;;20.98;12.48;;;3.00;99.90;;;;;;3623850;31;20282;-75
2021/01/11 11:00:59;;;;;;;19.27;10.80;;;3.10;99.90;;;;;;3610068;39;20265;-75
2021/01/11 11:08:19;;;;;;;20.25;11.43;;;3.10;99.90;;;;;;3633952;31;20273;-75
2021/01/11 11:10:45;;;;;;;17.35;9.82;;;3.10;99.90;;;;;;3621434;39;20283;-75
2021/01/11 11:13:12;;;;;;;21.70;11.60;;;3.10;99.90;;;;;;3627602;39;20267;-72
2021/01/11 11:15:42;;;;;;;22.98;12.27;;;3.10;99.90;;;;;;3625298;39;20270;-73
2021/01/11 11:18:09;;;;;;;19.92;10.77;;;3.20;99.90;;;;;;3617816;39;20373;-72
2021/01/11 11:20:35;;;;;;;20.00;11.80;;;3.10;99.90;;;;;;3619230;32;20350;-72
2021/01/11 11:23:02;;;;;;;17.92;10.63;;;3.10;99.90;;;;;;3619437;39;20288;-72
2021/01/11 11:25:29;;;;;;;20.83;11.32;;;3.10;99.90;;;;;;3618595;39;20848;-73
2021/01/11 11:27:56;;;;;;;22.38;11.77;;;3.10;99.90;;;;;;3621460;31;20306;-72
2021/01/11 11:30:23;;;;;;;27.38;12.07;;;3.20;99.90;;;;;;3621233;39;20289;-73
2021/01/11 11:32:50;;;;;;;23.55;11.65;;;3.20;99.90;;;;;;3620169;39;20302;-73
2021/01/11 11:35:18;;;;;;;17.15;11.10;;;3.30;99.90;;;;;;3622515;39;20303;-72
2021/01/11 11:37:45;;;;;;;18.55;11.23;;;3.30;99.90;;;;;;3629489;39;20281;-73
2021/01/11 11:40:13;;;;;;;17.95;11.48;;;3.30;99.90;;;;;;3623891;39;20264;-72
2021/01/11 11:42:43;;;;;;;19.27;10.68;;;3.30;99.90;;;;;;3639226;31;20321;-72
2021/01/11 11:45:12;;;;;;;19.25;10.73;;;3.30;99.90;;;;;;3621705;39;20255;-72
2021/01/11 11:47:40;;;;;;;18.88;10.93;;;3.40;99.90;;;;;;3626925;39;20254;-72
2021/01/11 11:50:09;;;;;;;18.58;9.77;;;3.40;99.90;;;;;;3629144;39;20301;-75
2021/01/11 11:52:37;;;;;;;15.80;9.35;;;3.50;99.90;;;;;;3627437;39;20663;-75
2021/01/11 11:55:05;;;;;;;18.35;11.77;;;3.50;99.90;;;;;;3627469;39;20314;-74
2021/01/11 11:57:32;;;;;;;16.02;9.40;;;3.50;99.90;;;;;;3624375;39;20299;-73
2021/01/11 12:00:00;;;;;;;15.95;9.73;;;3.50;99.90;;;;;;3621139;39;20372;-72
2021/01/11 12:02:26;;;;;;;18.67;10.70;;;3.60;99.90;;;;;;3625119;32;21017;-73
2021/01/11 12:04:53;;;;;;;16.08;9.55;;;3.50;99.90;;;;;;3619890;39;20292;-72
2021/01/11 12:07:19;;;;;;;15.60;9.45;;;3.50;99.90;;;;;;3621797;31;20266;-72
2021/01/11 12:09:46;;;;;;;15.77;9.63;;;3.50;99.90;;;;;;3625045;39;20248;-72
2021/01/11 12:12:13;;;;;;;12.82;8.43;;;3.50;99.90;;;;;;3629849;39;20241;-73
2021/01/11 12:14:40;;;;;;;14.18;8.43;;;3.50;99.90;;;;;;3620099;39;20266;-72
2021/01/11 12:17:09;;;;;;;16.77;9.70;;;3.60;99.90;;;;;;3612025;39;20282;-72
2021/01/11 12:19:35;;;;;;;18.15;10.07;;;3.60;99.90;;;;;;3613419;32;20286;-72
2021/01/11 12:22:05;;;;;;;16.45;10.27;;;3.60;99.90;;;;;;3614735;32;20291;-73
2021/01/11 12:24:31;;;;;;;15.15;9.48;;;3.70;99.90;;;;;;3616533;39;20311;-73
2021/01/11 12:26:58;;;;;;;14.20;8.98;;;3.70;99.90;;;;;;3620733;39;20269;-73
2021/01/11 12:29:25;;;;;;;16.13;9.05;;;3.70;99.90;;;;;;3626971;32;20258;-73
2021/01/11 12:31:52;;;;;;;17.45;9.45;;;3.70;99.90;;;;;;3616397;39;20344;-73
2021/01/11 12:34:19;;;;;;;16.65;9.27;;;3.70;99.90;;;;;;3619418;39;20235;-73
2021/01/11 12:36:45;;;;;;;17.92;9.13;;;3.70;99.90;;;;;;3621091;39;20253;-73
2021/01/11 12:39:12;;;;;;;14.23;8.40;;;3.70;99.90;;;;;;3616538;39;20328;-73
2021/01/11 12:41:40;;;;;;;16.55;9.05;;;3.70;99.90;;;;;;3617125;39;20272;-73
2021/01/11 12:44:08;;;;;;;13.10;7.93;;;3.70;99.90;;;;;;3617400;39;20304;-73
2021/01/11 12:46:35;;;;;;;20.65;8.75;;;3.80;99.90;;;;;;3612724;39;20315;-73
2021/01/11 12:49:01;;;;;;;14.10;8.15;;;3.80;99.90;;;;;;3612964;39;20307;-73
2021/01/11 12:51:29;;;;;;;15.82;8.13;;;3.90;99.90;;;;;;3612561;39;20306;-73
2021/01/11 12:53:56;;;;;;;14.27;9.18;;;3.90;99.90;;;;;;3612853;31;20282;-73